Terminal Aerodrome Forecast
Issued by NWS Jackson, KY

Home | Current Version | Previous Version | Text Only | Print | Product List | Glossary On
Versions: 1 2 3 4 5 6 7 8 9 10 11 12 13 14 15 16 17 18
000
FTUS43 KJKL 292300
TAFLOZ
TAF
KLOZ 292340Z 3000/3024 VRB03KT P6SM SCT250
      TEMPO 3008/3012 4SM BR
     FM302000 21008KT P6SM VCTS BKN050CB=

USA.gov is the U.S. government's official web portal to all federal, state and local government web resources and services.